sensor_id;sensor_type;location;lat;lon;timestamp;pressure;altitude;pressure_sealevel;temperature;humidity
35848;BME280;22332;51.954;20.118;2023-04-09T00:03:04;100918.49;;;9.32;73.80
35848;BME280;22332;51.954;20.118;2023-04-09T00:06:11;100912.09;;;9.34;73.78
35848;BME280;22332;51.954;20.118;2023-04-09T00:09:17;100912.09;;;9.36;73.67
35848;BME280;22332;51.954;20.118;2023-04-09T00:12:24;100906.16;;;9.39;73.69
35848;BME280;22332;51.954;20.118;2023-04-09T00:15:29;100908.83;;;9.41;73.75
35848;BME280;22332;51.954;20.118;2023-04-09T00:18:35;100907.31;;;9.40;73.87
35848;BME280;22332;51.954;20.118;2023-04-09T00:21:40;100902.01;;;9.38;73.90
35848;BME280;22332;51.954;20.118;2023-04-09T00:24:45;100901.63;;;9.36;73.83
35848;BME280;22332;51.954;20.118;2023-04-09T00:27:51;100901.58;;;9.35;73.71
35848;BME280;22332;51.954;20.118;2023-04-09T00:30:56;100900.14;;;9.33;74.01
35848;BME280;22332;51.954;20.118;2023-04-09T00:34:02;100899.38;;;9.31;74.10
35848;BME280;22332;51.954;20.118;2023-04-09T00:37:07;100901.09;;;9.30;74.16
35848;BME280;22332;51.954;20.118;2023-04-09T00:40:13;100896.58;;;9.29;74.33
35848;BME280;22332;51.954;20.118;2023-04-09T00:43:18;100895.08;;;9.30;74.26
35848;BME280;22332;51.954;20.118;2023-04-09T00:46:24;100894.86;;;9.28;74.25
35848;BME280;22332;51.954;20.118;2023-04-09T00:49:30;100892.59;;;9.29;74.39
35848;BME280;22332;51.954;20.118;2023-04-09T00:52:36;100892.59;;;9.30;74.36
35848;BME280;22332;51.954;20.118;2023-04-09T00:55:41;100889.46;;;9.29;74.53
35848;BME280;22332;51.954;20.118;2023-04-09T00:58:47;100889.90;;;9.28;74.73
35848;BME280;22332;51.954;20.118;2023-04-09T01:01:53;100892.16;;;9.26;74.50
35848;BME280;22332;51.954;20.118;2023-04-09T01:04:59;100886.64;;;9.27;74.57
35848;BME280;22332;51.954;20.118;2023-04-09T01:08:11;100880.97;;;9.30;74.67
35848;BME280;22332;51.954;20.118;2023-04-09T01:11:35;100881.98;;;9.33;74.61
35848;BME280;22332;51.954;20.118;2023-04-09T01:14:42;100872.75;;;9.31;74.58
35848;BME280;22332;51.954;20.118;2023-04-09T01:17:55;100874.54;;;9.29;74.79
35848;BME280;22332;51.954;20.118;2023-04-09T01:21:06;100874.35;;;9.27;74.83
35848;BME280;22332;51.954;20.118;2023-04-09T01:24:20;100868.94;;;9.26;74.76
35848;BME280;22332;51.954;20.118;2023-04-09T01:27:42;100869.66;;;9.24;75.02
35848;BME280;22332;51.954;20.118;2023-04-09T01:30:51;100866.05;;;9.20;74.90
35848;BME280;22332;51.954;20.118;2023-04-09T01:33:59;100858.91;;;9.18;75.05
35848;BME280;22332;51.954;20.118;2023-04-09T01:37:06;100856.27;;;9.18;75.21
35848;BME280;22332;51.954;20.118;2023-04-09T01:40:13;100858.00;;;9.19;75.47
35848;BME280;22332;51.954;20.118;2023-04-09T01:43:20;100859.59;;;9.12;75.51
35848;BME280;22332;51.954;20.118;2023-04-09T01:46:26;100856.58;;;9.09;75.58
35848;BME280;22332;51.954;20.118;2023-04-09T01:49:32;100854.85;;;9.12;75.64
35848;BME280;22332;51.954;20.118;2023-04-09T01:52:38;100852.86;;;9.14;75.63
35848;BME280;22332;51.954;20.118;2023-04-09T01:55:44;100859.20;;;9.15;75.72
35848;BME280;22332;51.954;20.118;2023-04-09T01:58:49;100860.71;;;9.14;75.62
35848;BME280;22332;51.954;20.118;2023-04-09T02:02:00;100866.71;;;9.12;75.65
35848;BME280;22332;51.954;20.118;2023-04-09T02:05:13;100864.05;;;9.10;75.76
35848;BME280;22332;51.954;20.118;2023-04-09T02:08:21;100866.88;;;9.11;75.84
35848;BME280;22332;51.954;20.118;2023-04-09T02:11:29;100867.52;;;9.05;75.95
35848;BME280;22332;51.954;20.118;2023-04-09T02:14:38;100865.52;;;9.01;75.96
35848;BME280;22332;51.954;20.118;2023-04-09T02:17:44;100867.49;;;9.00;75.88
35848;BME280;22332;51.954;20.118;2023-04-09T02:20:50;100869.58;;;8.99;76.04
35848;BME280;22332;51.954;20.118;2023-04-09T02:23:56;100866.36;;;9.01;76.34
35848;BME280;22332;51.954;20.118;2023-04-09T02:27:02;100865.23;;;9.02;76.10
35848;BME280;22332;51.954;20.118;2023-04-09T02:30:09;100867.75;;;9.04;76.29
35848;BME280;22332;51.954;20.118;2023-04-09T02:33:15;100870.79;;;9.06;76.16
35848;BME280;22332;51.954;20.118;2023-04-09T02:36:20;100877.06;;;9.09;76.07
35848;BME280;22332;51.954;20.118;2023-04-09T02:39:26;100881.04;;;9.06;76.45
35848;BME280;22332;51.954;20.118;2023-04-09T02:42:31;100878.09;;;8.99;76.45
35848;BME280;22332;51.954;20.118;2023-04-09T02:45:37;100879.02;;;9.01;76.50
35848;BME280;22332;51.954;20.118;2023-04-09T02:48:42;100877.67;;;9.04;76.64
35848;BME280;22332;51.954;20.118;2023-04-09T02:51:47;100880.29;;;9.05;76.44
35848;BME280;22332;51.954;20.118;2023-04-09T02:54:53;100878.86;;;9.02;76.50
35848;BME280;22332;51.954;20.118;2023-04-09T02:57:58;100880.08;;;9.02;76.53
35848;BME280;22332;51.954;20.118;2023-04-09T03:01:04;100885.72;;;8.99;76.48
35848;BME280;22332;51.954;20.118;2023-04-09T03:04:09;100885.39;;;8.95;76.80
35848;BME280;22332;51.954;20.118;2023-04-09T03:07:15;100879.86;;;8.89;77.13
35848;BME280;22332;51.954;20.118;2023-04-09T03:10:20;100879.59;;;8.85;77.13
35848;BME280;22332;51.954;20.118;2023-04-09T03:13:27;100877.55;;;8.77;77.29
35848;BME280;22332;51.954;20.118;2023-04-09T03:16:33;100879.54;;;8.69;77.52
35848;BME280;22332;51.954;20.118;2023-04-09T03:19:38;100877.85;;;8.61;78.04
35848;BME280;22332;51.954;20.118;2023-04-09T03:22:44;100877.74;;;8.51;78.06
35848;BME280;22332;51.954;20.118;2023-04-09T03:26:03;100879.95;;;8.46;78.20
35848;BME280;22332;51.954;20.118;2023-04-09T03:29:12;100878.70;;;8.46;78.26
35848;BME280;22332;51.954;20.118;2023-04-09T03:32:17;100875.70;;;8.46;78.39
35848;BME280;22332;51.954;20.118;2023-04-09T03:35:23;100876.64;;;8.47;78.40
35848;BME280;22332;51.954;20.118;2023-04-09T03:38:33;100877.91;;;8.45;79.08
35848;BME280;22332;51.954;20.118;2023-04-09T03:41:41;100873.39;;;8.39;78.79
35848;BME280;22332;51.954;20.118;2023-04-09T03:44:53;100873.76;;;8.34;79.18
35848;BME280;22332;51.954;20.118;2023-04-09T03:48:12;100868.12;;;8.30;79.06
35848;BME280;22332;51.954;20.118;2023-04-09T03:51:17;100869.29;;;8.31;78.86
35848;BME280;22332;51.954;20.118;2023-04-09T03:54:30;100869.41;;;8.33;78.82
35848;BME280;22332;51.954;20.118;2023-04-09T03:57:37;100869.61;;;8.36;79.46
35848;BME280;22332;51.954;20.118;2023-04-09T04:00:45;100876.31;;;8.38;79.25
35848;BME280;22332;51.954;20.118;2023-04-09T04:04:07;100873.74;;;8.39;79.66
35848;BME280;22332;51.954;20.118;2023-04-09T04:07:20;100869.36;;;8.34;80.17
35848;BME280;22332;51.954;20.118;2023-04-09T04:10:31;100867.52;;;8.26;80.61
35848;BME280;22332;51.954;20.118;2023-04-09T04:13:38;100863.27;;;8.19;80.73
35848;BME280;22332;51.954;20.118;2023-04-09T04:16:45;100864.61;;;8.16;80.98
35848;BME280;22332;51.954;20.118;2023-04-09T04:19:53;100868.42;;;8.15;81.02
35848;BME280;22332;51.954;20.118;2023-04-09T04:23:00;100873.20;;;8.17;80.53
35848;BME280;22332;51.954;20.118;2023-04-09T04:26:08;100874.38;;;8.20;80.26
35848;BME280;22332;51.954;20.118;2023-04-09T04:29:14;100875.04;;;8.23;80.28
35848;BME280;22332;51.954;20.118;2023-04-09T04:32:30;100870.54;;;8.28;80.10
35848;BME280;22332;51.954;20.118;2023-04-09T04:35:38;100874.48;;;8.30;80.33
35848;BME280;22332;51.954;20.118;2023-04-09T04:38:45;100870.33;;;8.33;80.13
35848;BME280;22332;51.954;20.118;2023-04-09T04:42:05;100872.84;;;8.44;80.15
35848;BME280;22332;51.954;20.118;2023-04-09T04:45:11;100873.16;;;8.55;80.28
35848;BME280;22332;51.954;20.118;2023-04-09T04:48:39;100876.51;;;8.56;80.31
35848;BME280;22332;51.954;20.118;2023-04-09T04:51:45;100874.82;;;8.52;80.18
35848;BME280;22332;51.954;20.118;2023-04-09T04:54:52;100877.35;;;8.56;80.04
35848;BME280;22332;51.954;20.118;2023-04-09T04:58:00;100876.65;;;8.62;80.30
35848;BME280;22332;51.954;20.118;2023-04-09T05:01:07;100873.50;;;8.62;80.23
35848;BME280;22332;51.954;20.118;2023-04-09T05:04:13;100873.06;;;8.61;80.40
35848;BME280;22332;51.954;20.118;2023-04-09T05:07:19;100874.96;;;8.61;80.42
35848;BME280;22332;51.954;20.118;2023-04-09T05:10:30;100874.27;;;8.64;80.35
35848;BME280;22332;51.954;20.118;2023-04-09T05:13:37;100874.10;;;8.72;80.32
35848;BME280;22332;51.954;20.118;2023-04-09T05:16:45;100873.39;;;8.75;80.34
35848;BME280;22332;51.954;20.118;2023-04-09T05:19:52;100876.23;;;8.77;80.38
35848;BME280;22332;51.954;20.118;2023-04-09T05:23:03;100873.17;;;8.86;80.22
35848;BME280;22332;51.954;20.118;2023-04-09T05:26:13;100877.54;;;8.95;80.32
35848;BME280;22332;51.954;20.118;2023-04-09T05:29:29;100880.45;;;8.98;80.79
35848;BME280;22332;51.954;20.118;2023-04-09T05:32:36;100882.01;;;8.99;80.84
35848;BME280;22332;51.954;20.118;2023-04-09T05:35:42;100885.20;;;9.03;81.01
35848;BME280;22332;51.954;20.118;2023-04-09T05:38:48;100882.58;;;9.09;81.30
35848;BME280;22332;51.954;20.118;2023-04-09T05:41:53;100884.29;;;9.16;80.86
35848;BME280;22332;51.954;20.118;2023-04-09T05:44:59;100885.81;;;9.26;80.84
35848;BME280;22332;51.954;20.118;2023-04-09T05:48:05;100890.03;;;9.31;80.68
35848;BME280;22332;51.954;20.118;2023-04-09T05:51:11;100889.95;;;9.35;80.89
35848;BME280;22332;51.954;20.118;2023-04-09T05:54:18;100889.49;;;9.41;80.61
35848;BME280;22332;51.954;20.118;2023-04-09T05:57:24;100884.02;;;9.47;80.75
35848;BME280;22332;51.954;20.118;2023-04-09T06:00:36;100880.48;;;9.57;80.64
35848;BME280;22332;51.954;20.118;2023-04-09T06:03:42;100877.70;;;9.65;80.65
35848;BME280;22332;51.954;20.118;2023-04-09T06:06:47;100877.70;;;9.63;80.30
35848;BME280;22332;51.954;20.118;2023-04-09T06:09:53;100878.00;;;9.59;80.56
35848;BME280;22332;51.954;20.118;2023-04-09T06:12:59;100880.80;;;9.56;80.96
35848;BME280;22332;51.954;20.118;2023-04-09T06:16:06;100887.06;;;9.57;80.70
35848;BME280;22332;51.954;20.118;2023-04-09T06:19:13;100891.46;;;9.70;80.48
35848;BME280;22332;51.954;20.118;2023-04-09T06:22:19;100895.38;;;9.85;79.98
35848;BME280;22332;51.954;20.118;2023-04-09T06:25:25;100896.05;;;9.91;80.23
35848;BME280;22332;51.954;20.118;2023-04-09T06:28:31;100899.83;;;9.93;80.22
35848;BME280;22332;51.954;20.118;2023-04-09T06:31:36;100902.53;;;9.99;80.02
35848;BME280;22332;51.954;20.118;2023-04-09T06:34:42;100904.73;;;10.06;79.82
35848;BME280;22332;51.954;20.118;2023-04-09T06:37:48;100907.99;;;10.07;80.05
35848;BME280;22332;51.954;20.118;2023-04-09T06:40:53;100915.70;;;10.04;79.83
35848;BME280;22332;51.954;20.118;2023-04-09T06:44:00;100914.48;;;10.08;79.68
35848;BME280;22332;51.954;20.118;2023-04-09T06:47:05;100912.40;;;10.22;80.04
35848;BME280;22332;51.954;20.118;2023-04-09T06:50:12;100909.34;;;10.35;79.95
35848;BME280;22332;51.954;20.118;2023-04-09T06:53:17;100909.94;;;10.58;79.71
35848;BME280;22332;51.954;20.118;2023-04-09T06:56:23;100908.07;;;10.87;79.84
35848;BME280;22332;51.954;20.118;2023-04-09T06:59:28;100914.95;;;11.09;79.35
35848;BME280;22332;51.954;20.118;2023-04-09T07:02:34;100930.03;;;11.24;78.76
35848;BME280;22332;51.954;20.118;2023-04-09T07:05:40;100931.65;;;11.37;78.99
35848;BME280;22332;51.954;20.118;2023-04-09T07:08:46;100927.70;;;11.55;78.61
35848;BME280;22332;51.954;20.118;2023-04-09T07:11:51;100926.17;;;11.73;78.23
35848;BME280;22332;51.954;20.118;2023-04-09T07:14:59;100927.10;;;11.72;77.44
35848;BME280;22332;51.954;20.118;2023-04-09T07:18:41;100930.66;;;11.80;78.30
35848;BME280;22332;51.954;20.118;2023-04-09T07:21:46;100934.21;;;11.96;78.11
35848;BME280;22332;51.954;20.118;2023-04-09T07:24:52;100930.26;;;12.11;78.33
35848;BME280;22332;51.954;20.118;2023-04-09T07:27:58;100931.61;;;12.31;78.09
35848;BME280;22332;51.954;20.118;2023-04-09T07:31:04;100930.41;;;12.52;78.09
35848;BME280;22332;51.954;20.118;2023-04-09T07:34:09;100926.89;;;12.70;76.63
35848;BME280;22332;51.954;20.118;2023-04-09T07:37:15;100927.10;;;12.72;76.07
35848;BME280;22332;51.954;20.118;2023-04-09T07:40:20;100932.20;;;12.72;76.82
35848;BME280;22332;51.954;20.118;2023-04-09T07:43:26;100928.92;;;12.86;76.88
35848;BME280;22332;51.954;20.118;2023-04-09T07:46:31;100928.29;;;13.05;76.66
35848;BME280;22332;51.954;20.118;2023-04-09T07:49:37;100927.69;;;13.20;76.11
35848;BME280;22332;51.954;20.118;2023-04-09T07:52:42;100927.16;;;13.33;75.94
35848;BME280;22332;51.954;20.118;2023-04-09T07:55:50;100920.41;;;13.48;75.38
35848;BME280;22332;51.954;20.118;2023-04-09T07:58:55;100925.98;;;13.61;74.99
35848;BME280;22332;51.954;20.118;2023-04-09T08:02:01;100930.02;;;13.77;75.33
35848;BME280;22332;51.954;20.118;2023-04-09T08:05:08;100921.83;;;13.97;74.64
35848;BME280;22332;51.954;20.118;2023-04-09T08:08:13;100917.67;;;14.11;74.17
35848;BME280;22332;51.954;20.118;2023-04-09T08:11:19;100920.59;;;14.25;74.19
35848;BME280;22332;51.954;20.118;2023-04-09T08:14:28;100922.66;;;14.38;72.58
35848;BME280;22332;51.954;20.118;2023-04-09T08:17:33;100918.47;;;14.43;73.26
35848;BME280;22332;51.954;20.118;2023-04-09T08:20:40;100921.36;;;14.50;72.99
35848;BME280;22332;51.954;20.118;2023-04-09T08:23:48;100925.56;;;14.51;71.68
35848;BME280;22332;51.954;20.118;2023-04-09T08:26:54;100926.55;;;14.51;71.38
35848;BME280;22332;51.954;20.118;2023-04-09T08:29:59;100924.36;;;14.52;69.91
35848;BME280;22332;51.954;20.118;2023-04-09T08:33:05;100925.67;;;14.51;71.46
35848;BME280;22332;51.954;20.118;2023-04-09T08:36:11;100927.55;;;14.63;70.75
35848;BME280;22332;51.954;20.118;2023-04-09T08:39:17;100927.05;;;14.64;71.06
35848;BME280;22332;51.954;20.118;2023-04-09T08:42:25;100919.60;;;14.65;69.15
35848;BME280;22332;51.954;20.118;2023-04-09T08:45:31;100916.59;;;14.60;66.94
35848;BME280;22332;51.954;20.118;2023-04-09T08:48:45;100921.29;;;14.46;67.40
35848;BME280;22332;51.954;20.118;2023-04-09T08:51:50;100926.59;;;14.52;68.88
35848;BME280;22332;51.954;20.118;2023-04-09T08:54:56;100922.36;;;14.69;68.04
35848;BME280;22332;51.954;20.118;2023-04-09T08:58:04;100920.42;;;14.74;66.38
35848;BME280;22332;51.954;20.118;2023-04-09T09:01:21;100915.30;;;14.75;68.07
35848;BME280;22332;51.954;20.118;2023-04-09T09:04:44;100919.23;;;14.86;67.55
35848;BME280;22332;51.954;20.118;2023-04-09T09:07:54;100921.75;;;14.89;67.89
35848;BME280;22332;51.954;20.118;2023-04-09T09:11:01;100920.45;;;14.96;68.29
35848;BME280;22332;51.954;20.118;2023-04-09T09:14:08;100919.59;;;15.02;68.21
35848;BME280;22332;51.954;20.118;2023-04-09T09:17:14;100925.10;;;15.08;67.91
35848;BME280;22332;51.954;20.118;2023-04-09T09:20:21;100923.83;;;15.09;67.00
35848;BME280;22332;51.954;20.118;2023-04-09T09:23:35;100928.47;;;15.06;67.35
35848;BME280;22332;51.954;20.118;2023-04-09T09:26:41;100927.20;;;15.12;67.66
35848;BME280;22332;51.954;20.118;2023-04-09T09:29:47;100929.92;;;15.09;66.32
35848;BME280;22332;51.954;20.118;2023-04-09T09:33:03;100929.08;;;14.94;66.32
35848;BME280;22332;51.954;20.118;2023-04-09T09:36:09;100932.89;;;14.75;66.54
35848;BME280;22332;51.954;20.118;2023-04-09T09:39:15;100934.20;;;14.61;67.05
35848;BME280;22332;51.954;20.118;2023-04-09T09:42:21;100931.19;;;14.53;66.93
35848;BME280;22332;51.954;20.118;2023-04-09T09:45:27;100931.52;;;14.58;66.91
35848;BME280;22332;51.954;20.118;2023-04-09T09:48:33;100931.48;;;14.63;66.56
35848;BME280;22332;51.954;20.118;2023-04-09T09:51:40;100932.82;;;14.62;67.03
35848;BME280;22332;51.954;20.118;2023-04-09T09:54:50;100931.64;;;14.75;67.51
35848;BME280;22332;51.954;20.118;2023-04-09T09:57:57;100932.48;;;14.89;67.21
35848;BME280;22332;51.954;20.118;2023-04-09T10:01:02;100933.72;;;14.94;66.89
35848;BME280;22332;51.954;20.118;2023-04-09T10:04:14;100931.45;;;14.95;66.39
35848;BME280;22332;51.954;20.118;2023-04-09T10:07:20;100929.09;;;14.99;66.32
35848;BME280;22332;51.954;20.118;2023-04-09T10:10:27;100930.52;;;14.80;63.43
35848;BME280;22332;51.954;20.118;2023-04-09T10:13:36;100930.28;;;14.59;63.99
35848;BME280;22332;51.954;20.118;2023-04-09T10:16:43;100931.14;;;14.42;64.36
35848;BME280;22332;51.954;20.118;2023-04-09T10:19:55;100926.95;;;14.44;65.37
35848;BME280;22332;51.954;20.118;2023-04-09T10:23:11;100925.29;;;14.50;65.56
35848;BME280;22332;51.954;20.118;2023-04-09T10:26:20;100927.44;;;14.59;64.55
35848;BME280;22332;51.954;20.118;2023-04-09T10:29:30;100929.80;;;14.46;62.98
35848;BME280;22332;51.954;20.118;2023-04-09T10:32:36;100930.81;;;14.35;63.87
35848;BME280;22332;51.954;20.118;2023-04-09T10:35:44;100930.68;;;14.38;64.77
35848;BME280;22332;51.954;20.118;2023-04-09T10:38:50;100929.26;;;14.41;64.22
35848;BME280;22332;51.954;20.118;2023-04-09T10:41:56;100932.09;;;14.45;64.37
35848;BME280;22332;51.954;20.118;2023-04-09T10:45:08;100929.64;;;14.53;64.62
35848;BME280;22332;51.954;20.118;2023-04-09T10:48:14;100929.23;;;14.64;64.66
35848;BME280;22332;51.954;20.118;2023-04-09T10:51:25;100931.27;;;14.70;64.79
35848;BME280;22332;51.954;20.118;2023-04-09T10:54:45;100928.64;;;14.71;63.21
35848;BME280;22332;51.954;20.118;2023-04-09T10:57:50;100926.30;;;14.69;64.37
35848;BME280;22332;51.954;20.118;2023-04-09T11:00:56;100923.70;;;14.80;63.71
35848;BME280;22332;51.954;20.118;2023-04-09T11:04:15;100924.68;;;14.82;63.99
35848;BME280;22332;51.954;20.118;2023-04-09T11:07:22;100923.35;;;14.89;63.50
35848;BME280;22332;51.954;20.118;2023-04-09T11:10:28;100927.64;;;14.84;63.36
35848;BME280;22332;51.954;20.118;2023-04-09T11:13:34;100927.63;;;14.76;62.43
35848;BME280;22332;51.954;20.118;2023-04-09T11:16:40;100927.20;;;14.71;63.14
35848;BME280;22332;51.954;20.118;2023-04-09T11:19:46;100926.45;;;14.72;62.95
35848;BME280;22332;51.954;20.118;2023-04-09T11:22:53;100925.41;;;14.78;63.49
35848;BME280;22332;51.954;20.118;2023-04-09T11:25:59;100925.27;;;14.91;62.91
35848;BME280;22332;51.954;20.118;2023-04-09T11:29:06;100924.87;;;15.08;63.40
35848;BME280;22332;51.954;20.118;2023-04-09T11:32:12;100924.37;;;15.29;63.36
35848;BME280;22332;51.954;20.118;2023-04-09T11:35:19;100923.55;;;15.42;61.62
35848;BME280;22332;51.954;20.118;2023-04-09T11:38:24;100923.87;;;15.29;61.70
35848;BME280;22332;51.954;20.118;2023-04-09T11:41:37;100923.23;;;15.32;62.08
35848;BME280;22332;51.954;20.118;2023-04-09T11:44:44;100924.39;;;15.20;62.95
35848;BME280;22332;51.954;20.118;2023-04-09T11:47:50;100925.38;;;15.17;63.04
35848;BME280;22332;51.954;20.118;2023-04-09T11:50:57;100923.20;;;15.17;63.21
35848;BME280;22332;51.954;20.118;2023-04-09T11:54:03;100925.88;;;15.10;62.48
35848;BME280;22332;51.954;20.118;2023-04-09T11:57:09;100923.38;;;15.02;63.16
35848;BME280;22332;51.954;20.118;2023-04-09T12:00:16;100923.35;;;14.87;62.14
35848;BME280;22332;51.954;20.118;2023-04-09T12:03:27;100921.79;;;14.77;62.93
35848;BME280;22332;51.954;20.118;2023-04-09T12:06:40;100913.53;;;14.82;62.78
35848;BME280;22332;51.954;20.118;2023-04-09T12:09:49;100912.79;;;14.99;63.05
35848;BME280;22332;51.954;20.118;2023-04-09T12:12:59;100916.54;;;15.09;61.45
35848;BME280;22332;51.954;20.118;2023-04-09T12:16:05;100915.56;;;15.15;62.67
35848;BME280;22332;51.954;20.118;2023-04-09T12:19:12;100917.45;;;15.25;61.40
35848;BME280;22332;51.954;20.118;2023-04-09T12:22:17;100918.15;;;15.12;60.43
35848;BME280;22332;51.954;20.118;2023-04-09T12:25:23;100919.11;;;15.02;60.56
35848;BME280;22332;51.954;20.118;2023-04-09T12:28:29;100916.50;;;14.89;60.91
35848;BME280;22332;51.954;20.118;2023-04-09T12:31:34;100920.60;;;14.81;60.58
35848;BME280;22332;51.954;20.118;2023-04-09T12:34:40;100924.21;;;14.62;60.67
35848;BME280;22332;51.954;20.118;2023-04-09T12:37:46;100919.74;;;14.46;61.53
35848;BME280;22332;51.954;20.118;2023-04-09T12:40:51;100916.02;;;14.34;61.01
35848;BME280;22332;51.954;20.118;2023-04-09T12:43:57;100917.95;;;14.25;61.54
35848;BME280;22332;51.954;20.118;2023-04-09T12:47:02;100918.88;;;14.23;61.46
35848;BME280;22332;51.954;20.118;2023-04-09T12:50:10;100918.52;;;14.27;62.01
35848;BME280;22332;51.954;20.118;2023-04-09T12:53:16;100915.86;;;14.41;61.83
35848;BME280;22332;51.954;20.118;2023-04-09T12:56:21;100919.59;;;14.55;61.60
35848;BME280;22332;51.954;20.118;2023-04-09T12:59:28;100916.61;;;14.65;61.06
35848;BME280;22332;51.954;20.118;2023-04-09T13:02:33;100914.04;;;14.75;61.29
35848;BME280;22332;51.954;20.118;2023-04-09T13:05:39;100910.09;;;14.89;61.13
35848;BME280;22332;51.954;20.118;2023-04-09T13:08:45;100908.81;;;14.97;60.33
35848;BME280;22332;51.954;20.118;2023-04-09T13:11:50;100903.77;;;15.04;61.28
35848;BME280;22332;51.954;20.118;2023-04-09T13:14:56;100906.21;;;15.20;60.15
35848;BME280;22332;51.954;20.118;2023-04-09T13:18:02;100905.92;;;15.16;60.37
35848;BME280;22332;51.954;20.118;2023-04-09T13:21:08;100903.19;;;15.20;60.89
35848;BME280;22332;51.954;20.118;2023-04-09T13:24:13;100902.80;;;15.31;60.89
35848;BME280;22332;51.954;20.118;2023-04-09T13:27:19;100899.20;;;15.35;59.67
35848;BME280;22332;51.954;20.118;2023-04-09T13:30:25;100901.23;;;15.24;60.39
35848;BME280;22332;51.954;20.118;2023-04-09T13:33:30;100900.68;;;15.18;60.46
35848;BME280;22332;51.954;20.118;2023-04-09T13:36:36;100902.83;;;15.13;60.02
35848;BME280;22332;51.954;20.118;2023-04-09T13:39:41;100899.92;;;14.95;60.35
35848;BME280;22332;51.954;20.118;2023-04-09T13:42:46;100896.27;;;14.82;60.48
35848;BME280;22332;51.954;20.118;2023-04-09T13:45:52;100891.96;;;14.76;60.60
35848;BME280;22332;51.954;20.118;2023-04-09T13:48:57;100894.23;;;14.66;60.31
35848;BME280;22332;51.954;20.118;2023-04-09T13:52:04;100891.92;;;14.54;60.13
35848;BME280;22332;51.954;20.118;2023-04-09T13:55:10;100893.83;;;14.46;60.46
35848;BME280;22332;51.954;20.118;2023-04-09T13:58:15;100890.13;;;14.44;60.87
35848;BME280;22332;51.954;20.118;2023-04-09T14:01:21;100889.85;;;14.43;60.60
35848;BME280;22332;51.954;20.118;2023-04-09T14:04:27;100886.42;;;14.40;60.67
35848;BME280;22332;51.954;20.118;2023-04-09T14:07:32;100887.64;;;14.33;60.37
35848;BME280;22332;51.954;20.118;2023-04-09T14:10:38;100886.64;;;14.26;60.44
35848;BME280;22332;51.954;20.118;2023-04-09T14:13:44;100877.79;;;14.27;60.44
35848;BME280;22332;51.954;20.118;2023-04-09T14:16:50;100880.39;;;14.31;60.46
35848;BME280;22332;51.954;20.118;2023-04-09T14:19:55;100870.53;;;14.38;60.55
35848;BME280;22332;51.954;20.118;2023-04-09T14:23:02;100872.59;;;14.49;60.27
35848;BME280;22332;51.954;20.118;2023-04-09T14:26:07;100868.56;;;14.46;59.53
35848;BME280;22332;51.954;20.118;2023-04-09T14:29:13;100865.91;;;14.48;60.23
35848;BME280;22332;51.954;20.118;2023-04-09T14:32:19;100862.13;;;14.64;60.42
35848;BME280;22332;51.954;20.118;2023-04-09T14:35:25;100860.00;;;14.80;60.07
35848;BME280;22332;51.954;20.118;2023-04-09T14:38:31;100857.98;;;14.87;59.87
35848;BME280;22332;51.954;20.118;2023-04-09T14:41:36;100858.80;;;14.89;59.63
35848;BME280;22332;51.954;20.118;2023-04-09T14:44:42;100854.39;;;14.90;59.61
35848;BME280;22332;51.954;20.118;2023-04-09T14:47:47;100850.67;;;15.02;59.96
35848;BME280;22332;51.954;20.118;2023-04-09T14:50:53;100843.27;;;15.17;59.78
35848;BME280;22332;51.954;20.118;2023-04-09T14:53:58;100842.63;;;15.34;59.60
35848;BME280;22332;51.954;20.118;2023-04-09T14:57:04;100839.75;;;15.52;59.64
35848;BME280;22332;51.954;20.118;2023-04-09T15:00:12;100841.91;;;15.61;58.48
35848;BME280;22332;51.954;20.118;2023-04-09T15:03:18;100839.74;;;15.57;57.66
35848;BME280;22332;51.954;20.118;2023-04-09T15:06:25;100838.92;;;15.58;58.32
35848;BME280;22332;51.954;20.118;2023-04-09T15:09:31;100838.58;;;15.71;58.74
35848;BME280;22332;51.954;20.118;2023-04-09T15:12:36;100839.45;;;15.85;58.82
35848;BME280;22332;51.954;20.118;2023-04-09T15:15:42;100841.73;;;15.91;57.97
35848;BME280;22332;51.954;20.118;2023-04-09T15:18:48;100838.09;;;15.80;58.18
35848;BME280;22332;51.954;20.118;2023-04-09T15:21:54;100839.89;;;15.77;58.52
35848;BME280;22332;51.954;20.118;2023-04-09T15:25:00;100841.39;;;15.73;58.72
35848;BME280;22332;51.954;20.118;2023-04-09T15:28:06;100849.34;;;15.69;58.45
35848;BME280;22332;51.954;20.118;2023-04-09T15:31:12;100851.99;;;15.53;57.38
35848;BME280;22332;51.954;20.118;2023-04-09T15:34:17;100849.33;;;15.33;58.02
35848;BME280;22332;51.954;20.118;2023-04-09T15:37:23;100852.92;;;15.30;58.84
35848;BME280;22332;51.954;20.118;2023-04-09T15:40:28;100848.92;;;15.32;58.78
35848;BME280;22332;51.954;20.118;2023-04-09T15:43:34;100852.89;;;15.32;58.55
35848;BME280;22332;51.954;20.118;2023-04-09T15:46:39;100850.42;;;15.31;58.56
35848;BME280;22332;51.954;20.118;2023-04-09T15:49:45;100853.26;;;15.32;58.60
35848;BME280;22332;51.954;20.118;2023-04-09T15:52:50;100851.88;;;15.35;58.21
35848;BME280;22332;51.954;20.118;2023-04-09T15:55:56;100853.31;;;15.35;58.30
35848;BME280;22332;51.954;20.118;2023-04-09T15:59:02;100858.37;;;15.31;58.25
35848;BME280;22332;51.954;20.118;2023-04-09T16:02:08;100853.23;;;15.26;58.43
35848;BME280;22332;51.954;20.118;2023-04-09T16:05:14;100856.27;;;15.18;58.63
35848;BME280;22332;51.954;20.118;2023-04-09T16:08:19;100863.77;;;15.08;58.52
35848;BME280;22332;51.954;20.118;2023-04-09T16:11:25;100863.58;;;15.00;58.42